Oscoda, Michigan
Current Conditions -  °F | °C
As of 8:14 AM on Wednesday 22 Oct 2014 (Local Time) from KOSC Reporting Station
Overcast Overcast  
Wind Chill: 38°   Ceiling: 1900
Heat Index: 42°   Visibility: 10mi
Dew Point: 37°   Wind: 6mph
Humidity: 82%   Direction: 350°N
Pressure: 30.35"   Gusts: NA
Location:  44.42°N, 83.33°W
Report Text: KOSC 221214Z AUTO 35005KT 10SM OVC019 05/02 A3035 RMK AO2 T00540025
Loading
Personal Weather Stations






























Interactive Weather Map New forecast layout! Learn more

10-Day Weather Forecast

Advertisements
Track Severe Weather on mobile